sensor_id;sensor_type;location;lat;lon;timestamp;P1;durP1;ratioP1;P2;durP2;ratioP2
31906;SDS011;18455;50.858;13.662;2022-12-07T00:02:33;19.77;;;12.57;;
31906;SDS011;18455;50.858;13.662;2022-12-07T00:07:34;16.70;;;10.97;;
31906;SDS011;18455;50.858;13.662;2022-12-07T00:12:34;19.43;;;11.43;;
31906;SDS011;18455;50.858;13.662;2022-12-07T00:17:34;16.60;;;10.30;;
31906;SDS011;18455;50.858;13.662;2022-12-07T00:22:35;15.27;;;9.40;;
31906;SDS011;18455;50.858;13.662;2022-12-07T00:27:35;15.07;;;8.93;;
31906;SDS011;18455;50.858;13.662;2022-12-07T00:32:36;15.47;;;8.63;;
31906;SDS011;18455;50.858;13.662;2022-12-07T00:37:36;18.73;;;10.80;;
31906;SDS011;18455;50.858;13.662;2022-12-07T00:42:36;15.13;;;9.50;;
31906;SDS011;18455;50.858;13.662;2022-12-07T00:47:37;14.70;;;9.17;;
31906;SDS011;18455;50.858;13.662;2022-12-07T00:52:37;16.20;;;9.97;;
31906;SDS011;18455;50.858;13.662;2022-12-07T00:57:38;14.33;;;9.27;;
31906;SDS011;18455;50.858;13.662;2022-12-07T01:02:39;17.73;;;10.40;;
31906;SDS011;18455;50.858;13.662;2022-12-07T01:07:39;19.07;;;10.23;;
31906;SDS011;18455;50.858;13.662;2022-12-07T01:12:40;16.33;;;10.27;;
31906;SDS011;18455;50.858;13.662;2022-12-07T01:17:40;15.87;;;10.50;;
31906;SDS011;18455;50.858;13.662;2022-12-07T01:22:41;22.33;;;11.67;;
31906;SDS011;18455;50.858;13.662;2022-12-07T01:27:42;16.03;;;10.43;;
31906;SDS011;18455;50.858;13.662;2022-12-07T01:32:42;14.70;;;10.50;;
31906;SDS011;18455;50.858;13.662;2022-12-07T01:37:43;20.77;;;12.03;;
31906;SDS011;18455;50.858;13.662;2022-12-07T01:42:43;17.33;;;11.03;;
31906;SDS011;18455;50.858;13.662;2022-12-07T01:47:48;17.20;;;10.60;;
31906;SDS011;18455;50.858;13.662;2022-12-07T01:52:51;18.30;;;10.83;;
31906;SDS011;18455;50.858;13.662;2022-12-07T01:57:54;16.57;;;10.43;;
31906;SDS011;18455;50.858;13.662;2022-12-07T02:02:57;12.83;;;8.60;;
31906;SDS011;18455;50.858;13.662;2022-12-07T02:08:01;13.40;;;8.63;;
31906;SDS011;18455;50.858;13.662;2022-12-07T02:13:08;13.50;;;9.10;;
31906;SDS011;18455;50.858;13.662;2022-12-07T02:18:21;16.37;;;11.23;;
31906;SDS011;18455;50.858;13.662;2022-12-07T02:23:32;21.57;;;12.27;;
31906;SDS011;18455;50.858;13.662;2022-12-07T02:29:10;21.23;;;13.30;;
31906;SDS011;18455;50.858;13.662;2022-12-07T02:34:19;21.97;;;13.83;;
31906;SDS011;18455;50.858;13.662;2022-12-07T02:39:44;23.20;;;14.30;;
31906;SDS011;18455;50.858;13.662;2022-12-07T02:44:48;22.60;;;13.23;;
31906;SDS011;18455;50.858;13.662;2022-12-07T02:49:49;21.13;;;13.23;;
31906;SDS011;18455;50.858;13.662;2022-12-07T02:54:50;23.27;;;13.70;;
31906;SDS011;18455;50.858;13.662;2022-12-07T03:00:00;20.70;;;11.87;;
31906;SDS011;18455;50.858;13.662;2022-12-07T03:05:09;21.33;;;12.43;;
31906;SDS011;18455;50.858;13.662;2022-12-07T03:15:27;20.37;;;13.50;;
31906;SDS011;18455;50.858;13.662;2022-12-07T03:20:40;22.50;;;12.57;;
31906;SDS011;18455;50.858;13.662;2022-12-07T03:25:43;19.93;;;12.53;;
31906;SDS011;18455;50.858;13.662;2022-12-07T03:30:56;20.33;;;11.77;;
31906;SDS011;18455;50.858;13.662;2022-12-07T03:36:25;15.40;;;10.87;;
31906;SDS011;18455;50.858;13.662;2022-12-07T03:41:31;15.37;;;10.60;;
31906;SDS011;18455;50.858;13.662;2022-12-07T03:46:42;18.53;;;10.03;;
31906;SDS011;18455;50.858;13.662;2022-12-07T03:52:30;15.20;;;10.27;;
31906;SDS011;18455;50.858;13.662;2022-12-07T03:57:25;18.03;;;11.17;;
31906;SDS011;18455;50.858;13.662;2022-12-07T04:02:27;16.23;;;10.83;;
31906;SDS011;18455;50.858;13.662;2022-12-07T04:07:28;16.47;;;10.60;;
31906;SDS011;18455;50.858;13.662;2022-12-07T04:12:28;17.80;;;11.50;;
31906;SDS011;18455;50.858;13.662;2022-12-07T04:17:28;16.43;;;10.67;;
31906;SDS011;18455;50.858;13.662;2022-12-07T04:22:29;18.47;;;11.20;;
31906;SDS011;18455;50.858;13.662;2022-12-07T04:27:29;17.20;;;10.13;;
31906;SDS011;18455;50.858;13.662;2022-12-07T04:32:30;15.37;;;9.73;;
31906;SDS011;18455;50.858;13.662;2022-12-07T04:37:30;10.73;;;6.33;;
31906;SDS011;18455;50.858;13.662;2022-12-07T04:42:30;13.53;;;8.77;;
31906;SDS011;18455;50.858;13.662;2022-12-07T04:47:31;11.90;;;8.33;;
31906;SDS011;18455;50.858;13.662;2022-12-07T04:52:31;14.03;;;8.20;;
31906;SDS011;18455;50.858;13.662;2022-12-07T04:57:32;12.10;;;7.20;;
31906;SDS011;18455;50.858;13.662;2022-12-07T05:02:32;11.47;;;7.63;;
31906;SDS011;18455;50.858;13.662;2022-12-07T05:07:32;13.80;;;7.13;;
31906;SDS011;18455;50.858;13.662;2022-12-07T05:12:33;10.23;;;7.10;;
31906;SDS011;18455;50.858;13.662;2022-12-07T05:17:33;11.63;;;6.90;;
31906;SDS011;18455;50.858;13.662;2022-12-07T05:22:34;9.33;;;6.17;;
31906;SDS011;18455;50.858;13.662;2022-12-07T05:27:34;9.33;;;6.47;;
31906;SDS011;18455;50.858;13.662;2022-12-07T05:32:35;8.73;;;5.37;;
31906;SDS011;18455;50.858;13.662;2022-12-07T05:37:35;6.80;;;3.70;;
31906;SDS011;18455;50.858;13.662;2022-12-07T05:42:35;7.77;;;4.07;;
31906;SDS011;18455;50.858;13.662;2022-12-07T05:47:37;8.10;;;5.57;;
31906;SDS011;18455;50.858;13.662;2022-12-07T05:52:38;4.67;;;4.17;;
31906;SDS011;18455;50.858;13.662;2022-12-07T05:57:38;8.93;;;4.17;;
31906;SDS011;18455;50.858;13.662;2022-12-07T06:02:38;9.73;;;4.30;;
31906;SDS011;18455;50.858;13.662;2022-12-07T06:07:39;7.97;;;5.50;;
31906;SDS011;18455;50.858;13.662;2022-12-07T06:12:39;7.77;;;5.13;;
31906;SDS011;18455;50.858;13.662;2022-12-07T06:17:42;6.77;;;5.07;;
31906;SDS011;18455;50.858;13.662;2022-12-07T06:22:42;5.80;;;4.80;;
31906;SDS011;18455;50.858;13.662;2022-12-07T06:27:43;7.17;;;4.37;;
31906;SDS011;18455;50.858;13.662;2022-12-07T06:32:44;6.50;;;4.80;;
31906;SDS011;18455;50.858;13.662;2022-12-07T06:37:44;9.70;;;5.23;;
31906;SDS011;18455;50.858;13.662;2022-12-07T06:42:44;5.93;;;4.37;;
31906;SDS011;18455;50.858;13.662;2022-12-07T06:47:45;9.60;;;5.00;;
31906;SDS011;18455;50.858;13.662;2022-12-07T06:52:45;9.17;;;6.23;;
31906;SDS011;18455;50.858;13.662;2022-12-07T06:57:45;10.03;;;6.37;;
31906;SDS011;18455;50.858;13.662;2022-12-07T07:02:46;10.50;;;7.83;;
31906;SDS011;18455;50.858;13.662;2022-12-07T07:07:46;20.20;;;8.03;;
31906;SDS011;18455;50.858;13.662;2022-12-07T07:12:47;13.90;;;10.07;;
31906;SDS011;18455;50.858;13.662;2022-12-07T07:17:48;6.50;;;5.37;;
31906;SDS011;18455;50.858;13.662;2022-12-07T07:22:48;10.23;;;6.50;;
31906;SDS011;18455;50.858;13.662;2022-12-07T07:27:49;14.90;;;9.40;;
31906;SDS011;18455;50.858;13.662;2022-12-07T07:32:49;7.93;;;5.63;;
31906;SDS011;18455;50.858;13.662;2022-12-07T07:37:50;8.73;;;5.90;;
31906;SDS011;18455;50.858;13.662;2022-12-07T07:42:51;8.90;;;6.37;;
31906;SDS011;18455;50.858;13.662;2022-12-07T07:47:52;6.97;;;6.07;;
31906;SDS011;18455;50.858;13.662;2022-12-07T07:52:52;15.27;;;8.30;;
31906;SDS011;18455;50.858;13.662;2022-12-07T07:57:53;12.37;;;7.30;;
31906;SDS011;18455;50.858;13.662;2022-12-07T08:02:54;10.37;;;6.70;;
31906;SDS011;18455;50.858;13.662;2022-12-07T08:07:54;9.80;;;7.03;;
31906;SDS011;18455;50.858;13.662;2022-12-07T08:12:54;16.17;;;11.47;;
31906;SDS011;18455;50.858;13.662;2022-12-07T08:18:14;16.00;;;12.47;;
31906;SDS011;18455;50.858;13.662;2022-12-07T08:23:15;17.90;;;12.57;;
31906;SDS011;18455;50.858;13.662;2022-12-07T08:28:15;19.13;;;10.07;;
31906;SDS011;18455;50.858;13.662;2022-12-07T08:33:16;16.87;;;10.77;;
31906;SDS011;18455;50.858;13.662;2022-12-07T08:38:16;13.67;;;9.20;;
31906;SDS011;18455;50.858;13.662;2022-12-07T08:43:16;15.27;;;9.40;;
31906;SDS011;18455;50.858;13.662;2022-12-07T08:48:17;11.13;;;8.40;;
31906;SDS011;18455;50.858;13.662;2022-12-07T08:53:21;14.03;;;9.07;;
31906;SDS011;18455;50.858;13.662;2022-12-07T08:58:22;12.17;;;7.40;;
31906;SDS011;18455;50.858;13.662;2022-12-07T09:03:22;12.17;;;8.47;;
31906;SDS011;18455;50.858;13.662;2022-12-07T09:08:23;8.80;;;6.57;;
31906;SDS011;18455;50.858;13.662;2022-12-07T09:13:27;15.60;;;11.70;;
31906;SDS011;18455;50.858;13.662;2022-12-07T09:18:27;13.20;;;7.80;;
31906;SDS011;18455;50.858;13.662;2022-12-07T09:23:27;14.13;;;7.70;;
31906;SDS011;18455;50.858;13.662;2022-12-07T09:28:28;9.83;;;6.73;;
31906;SDS011;18455;50.858;13.662;2022-12-07T09:33:28;17.77;;;11.73;;
31906;SDS011;18455;50.858;13.662;2022-12-07T09:38:29;13.53;;;7.73;;
31906;SDS011;18455;50.858;13.662;2022-12-07T09:43:29;11.00;;;6.67;;
31906;SDS011;18455;50.858;13.662;2022-12-07T09:48:31;9.20;;;6.23;;
31906;SDS011;18455;50.858;13.662;2022-12-07T09:53:33;9.30;;;5.93;;
31906;SDS011;18455;50.858;13.662;2022-12-07T09:58:34;8.63;;;5.27;;
31906;SDS011;18455;50.858;13.662;2022-12-07T10:03:40;9.13;;;5.63;;
31906;SDS011;18455;50.858;13.662;2022-12-07T10:08:43;10.13;;;5.73;;
31906;SDS011;18455;50.858;13.662;2022-12-07T10:13:48;10.43;;;6.40;;
31906;SDS011;18455;50.858;13.662;2022-12-07T10:18:50;11.13;;;6.30;;
31906;SDS011;18455;50.858;13.662;2022-12-07T10:24:01;9.03;;;5.50;;
31906;SDS011;18455;50.858;13.662;2022-12-07T10:34:30;10.37;;;5.37;;
31906;SDS011;18455;50.858;13.662;2022-12-07T10:39:33;7.43;;;5.10;;
31906;SDS011;18455;50.858;13.662;2022-12-07T10:44:41;8.97;;;5.43;;
31906;SDS011;18455;50.858;13.662;2022-12-07T10:55:02;8.47;;;5.37;;
31906;SDS011;18455;50.858;13.662;2022-12-07T11:00:23;14.87;;;7.33;;
31906;SDS011;18455;50.858;13.662;2022-12-07T11:11:09;14.50;;;8.17;;
31906;SDS011;18455;50.858;13.662;2022-12-07T11:21:32;11.47;;;6.37;;
31906;SDS011;18455;50.858;13.662;2022-12-07T11:31:56;11.07;;;6.80;;
31906;SDS011;18455;50.858;13.662;2022-12-07T11:37:06;10.97;;;6.07;;
31906;SDS011;18455;50.858;13.662;2022-12-07T11:42:14;12.73;;;7.97;;
31906;SDS011;18455;50.858;13.662;2022-12-07T11:47:20;14.30;;;7.80;;
31906;SDS011;18455;50.858;13.662;2022-12-07T11:52:26;12.33;;;6.60;;
31906;SDS011;18455;50.858;13.662;2022-12-07T11:57:33;14.00;;;7.73;;
31906;SDS011;18455;50.858;13.662;2022-12-07T12:02:58;9.80;;;5.67;;
31906;SDS011;18455;50.858;13.662;2022-12-07T12:13:09;7.93;;;4.77;;
31906;SDS011;18455;50.858;13.662;2022-12-07T12:29:02;8.77;;;5.23;;
31906;SDS011;18455;50.858;13.662;2022-12-07T12:39:38;9.47;;;5.27;;
31906;SDS011;18455;50.858;13.662;2022-12-07T12:44:39;11.37;;;5.60;;
31906;SDS011;18455;50.858;13.662;2022-12-07T12:49:40;10.07;;;5.30;;
31906;SDS011;18455;50.858;13.662;2022-12-07T12:55:11;8.80;;;5.23;;
31906;SDS011;18455;50.858;13.662;2022-12-07T13:00:17;10.10;;;5.63;;
31906;SDS011;18455;50.858;13.662;2022-12-07T13:05:22;14.27;;;6.60;;
31906;SDS011;18455;50.858;13.662;2022-12-07T13:15:31;9.93;;;6.10;;
31906;SDS011;18455;50.858;13.662;2022-12-07T13:20:44;16.63;;;9.53;;
31906;SDS011;18455;50.858;13.662;2022-12-07T13:25:54;10.77;;;5.53;;
31906;SDS011;18455;50.858;13.662;2022-12-07T13:31:04;11.57;;;6.80;;
31906;SDS011;18455;50.858;13.662;2022-12-07T13:36:23;9.57;;;5.27;;
31906;SDS011;18455;50.858;13.662;2022-12-07T13:41:26;33.20;;;16.27;;
31906;SDS011;18455;50.858;13.662;2022-12-07T13:51:50;11.00;;;5.40;;
31906;SDS011;18455;50.858;13.662;2022-12-07T13:56:51;11.50;;;5.57;;
31906;SDS011;18455;50.858;13.662;2022-12-07T14:01:52;9.67;;;5.50;;
31906;SDS011;18455;50.858;13.662;2022-12-07T14:06:53;7.60;;;5.13;;
31906;SDS011;18455;50.858;13.662;2022-12-07T14:11:54;9.70;;;5.03;;
31906;SDS011;18455;50.858;13.662;2022-12-07T14:16:56;8.10;;;4.73;;
31906;SDS011;18455;50.858;13.662;2022-12-07T14:22:08;8.17;;;4.33;;
31906;SDS011;18455;50.858;13.662;2022-12-07T14:27:22;5.63;;;3.87;;
31906;SDS011;18455;50.858;13.662;2022-12-07T14:32:26;7.73;;;4.83;;
31906;SDS011;18455;50.858;13.662;2022-12-07T14:37:29;8.00;;;5.07;;
31906;SDS011;18455;50.858;13.662;2022-12-07T14:42:30;14.57;;;6.40;;
31906;SDS011;18455;50.858;13.662;2022-12-07T14:53:54;21.07;;;12.67;;
31906;SDS011;18455;50.858;13.662;2022-12-07T14:58:54;18.77;;;10.93;;
31906;SDS011;18455;50.858;13.662;2022-12-07T15:03:55;6.87;;;5.00;;
31906;SDS011;18455;50.858;13.662;2022-12-07T15:08:55;21.73;;;10.03;;
31906;SDS011;18455;50.858;13.662;2022-12-07T15:13:56;17.50;;;6.43;;
31906;SDS011;18455;50.858;13.662;2022-12-07T15:19:18;26.53;;;11.17;;
31906;SDS011;18455;50.858;13.662;2022-12-07T15:24:24;12.23;;;7.63;;
31906;SDS011;18455;50.858;13.662;2022-12-07T15:29:25;11.07;;;5.77;;
31906;SDS011;18455;50.858;13.662;2022-12-07T15:34:26;11.90;;;6.27;;
31906;SDS011;18455;50.858;13.662;2022-12-07T15:39:28;9.07;;;4.80;;
31906;SDS011;18455;50.858;13.662;2022-12-07T15:44:28;9.40;;;4.17;;
31906;SDS011;18455;50.858;13.662;2022-12-07T15:49:47;7.97;;;4.27;;
31906;SDS011;18455;50.858;13.662;2022-12-07T15:54:48;6.67;;;4.30;;
31906;SDS011;18455;50.858;13.662;2022-12-07T15:59:52;12.37;;;6.20;;
31906;SDS011;18455;50.858;13.662;2022-12-07T16:04:53;16.90;;;8.47;;
31906;SDS011;18455;50.858;13.662;2022-12-07T16:09:53;31.87;;;17.13;;
31906;SDS011;18455;50.858;13.662;2022-12-07T16:14:54;14.23;;;7.83;;
31906;SDS011;18455;50.858;13.662;2022-12-07T16:19:54;14.30;;;6.27;;
31906;SDS011;18455;50.858;13.662;2022-12-07T16:24:55;8.97;;;4.63;;
31906;SDS011;18455;50.858;13.662;2022-12-07T16:29:55;4.77;;;4.10;;
31906;SDS011;18455;50.858;13.662;2022-12-07T16:34:55;8.07;;;4.67;;
31906;SDS011;18455;50.858;13.662;2022-12-07T16:39:56;5.50;;;4.33;;
31906;SDS011;18455;50.858;13.662;2022-12-07T16:44:56;9.97;;;6.40;;
31906;SDS011;18455;50.858;13.662;2022-12-07T16:49:56;6.40;;;4.20;;
31906;SDS011;18455;50.858;13.662;2022-12-07T16:54:57;7.90;;;4.43;;
31906;SDS011;18455;50.858;13.662;2022-12-07T16:59:57;5.33;;;3.57;;
31906;SDS011;18455;50.858;13.662;2022-12-07T17:04:58;4.17;;;3.23;;
31906;SDS011;18455;50.858;13.662;2022-12-07T17:09:58;8.07;;;5.07;;
31906;SDS011;18455;50.858;13.662;2022-12-07T17:14:59;9.40;;;4.03;;
31906;SDS011;18455;50.858;13.662;2022-12-07T17:20:18;7.30;;;4.47;;
31906;SDS011;18455;50.858;13.662;2022-12-07T17:25:19;6.23;;;4.00;;
31906;SDS011;18455;50.858;13.662;2022-12-07T17:30:19;10.20;;;3.90;;
31906;SDS011;18455;50.858;13.662;2022-12-07T17:35:20;8.20;;;4.57;;
31906;SDS011;18455;50.858;13.662;2022-12-07T17:40:20;7.80;;;3.90;;
31906;SDS011;18455;50.858;13.662;2022-12-07T17:45:21;5.63;;;3.80;;
31906;SDS011;18455;50.858;13.662;2022-12-07T17:50:21;7.47;;;3.10;;
31906;SDS011;18455;50.858;13.662;2022-12-07T17:55:41;8.27;;;3.93;;
31906;SDS011;18455;50.858;13.662;2022-12-07T18:00:42;15.23;;;7.30;;
31906;SDS011;18455;50.858;13.662;2022-12-07T18:05:42;7.83;;;3.70;;
31906;SDS011;18455;50.858;13.662;2022-12-07T18:10:44;11.27;;;4.83;;
31906;SDS011;18455;50.858;13.662;2022-12-07T18:15:45;12.37;;;6.80;;
31906;SDS011;18455;50.858;13.662;2022-12-07T18:20:45;7.60;;;3.90;;
31906;SDS011;18455;50.858;13.662;2022-12-07T18:25:47;8.13;;;3.73;;
31906;SDS011;18455;50.858;13.662;2022-12-07T18:30:48;16.90;;;8.13;;
31906;SDS011;18455;50.858;13.662;2022-12-07T18:35:51;8.53;;;3.83;;
31906;SDS011;18455;50.858;13.662;2022-12-07T18:40:51;6.47;;;3.90;;
31906;SDS011;18455;50.858;13.662;2022-12-07T18:45:52;5.20;;;3.73;;
31906;SDS011;18455;50.858;13.662;2022-12-07T18:51:02;8.23;;;4.40;;
31906;SDS011;18455;50.858;13.662;2022-12-07T18:56:04;5.97;;;3.70;;
31906;SDS011;18455;50.858;13.662;2022-12-07T19:01:06;5.80;;;3.70;;
31906;SDS011;18455;50.858;13.662;2022-12-07T19:06:07;8.40;;;4.90;;
31906;SDS011;18455;50.858;13.662;2022-12-07T19:11:11;7.23;;;3.13;;
31906;SDS011;18455;50.858;13.662;2022-12-07T19:16:35;7.90;;;4.37;;
31906;SDS011;18455;50.858;13.662;2022-12-07T19:21:35;8.83;;;3.53;;
31906;SDS011;18455;50.858;13.662;2022-12-07T19:26:36;9.43;;;5.50;;
31906;SDS011;18455;50.858;13.662;2022-12-07T19:31:36;9.30;;;3.77;;
31906;SDS011;18455;50.858;13.662;2022-12-07T19:36:37;11.23;;;5.53;;
31906;SDS011;18455;50.858;13.662;2022-12-07T19:41:37;4.63;;;3.60;;
31906;SDS011;18455;50.858;13.662;2022-12-07T19:46:38;6.93;;;3.67;;
31906;SDS011;18455;50.858;13.662;2022-12-07T19:51:39;5.87;;;3.70;;
31906;SDS011;18455;50.858;13.662;2022-12-07T19:56:40;6.83;;;3.50;;
31906;SDS011;18455;50.858;13.662;2022-12-07T20:01:42;13.83;;;3.50;;
31906;SDS011;18455;50.858;13.662;2022-12-07T20:06:43;8.17;;;3.77;;
31906;SDS011;18455;50.858;13.662;2022-12-07T20:11:43;8.13;;;3.40;;
31906;SDS011;18455;50.858;13.662;2022-12-07T20:17:03;9.20;;;3.80;;
31906;SDS011;18455;50.858;13.662;2022-12-07T20:22:03;9.90;;;3.70;;
31906;SDS011;18455;50.858;13.662;2022-12-07T20:27:04;5.43;;;4.07;;
31906;SDS011;18455;50.858;13.662;2022-12-07T20:32:05;10.40;;;4.30;;
31906;SDS011;18455;50.858;13.662;2022-12-07T20:37:05;7.00;;;4.30;;
31906;SDS011;18455;50.858;13.662;2022-12-07T20:42:06;7.97;;;4.23;;
31906;SDS011;18455;50.858;13.662;2022-12-07T20:47:25;5.40;;;4.20;;
31906;SDS011;18455;50.858;13.662;2022-12-07T20:52:25;7.87;;;4.80;;
31906;SDS011;18455;50.858;13.662;2022-12-07T20:57:25;10.93;;;4.20;;
31906;SDS011;18455;50.858;13.662;2022-12-07T21:02:26;11.57;;;5.60;;
31906;SDS011;18455;50.858;13.662;2022-12-07T21:07:26;9.97;;;4.73;;
31906;SDS011;18455;50.858;13.662;2022-12-07T21:12:27;10.97;;;5.10;;
31906;SDS011;18455;50.858;13.662;2022-12-07T21:17:28;6.33;;;4.70;;
31906;SDS011;18455;50.858;13.662;2022-12-07T21:22:28;12.33;;;4.80;;
31906;SDS011;18455;50.858;13.662;2022-12-07T21:27:29;10.63;;;4.30;;
31906;SDS011;18455;50.858;13.662;2022-12-07T21:32:29;8.87;;;4.23;;
31906;SDS011;18455;50.858;13.662;2022-12-07T21:37:29;6.63;;;3.50;;
31906;SDS011;18455;50.858;13.662;2022-12-07T21:42:30;6.93;;;4.10;;
31906;SDS011;18455;50.858;13.662;2022-12-07T21:47:31;8.37;;;4.93;;
31906;SDS011;18455;50.858;13.662;2022-12-07T21:52:31;11.17;;;4.13;;
31906;SDS011;18455;50.858;13.662;2022-12-07T21:57:32;7.80;;;4.07;;
31906;SDS011;18455;50.858;13.662;2022-12-07T22:02:32;7.03;;;3.73;;
31906;SDS011;18455;50.858;13.662;2022-12-07T22:07:32;14.40;;;3.93;;
31906;SDS011;18455;50.858;13.662;2022-12-07T22:12:34;11.23;;;4.50;;
31906;SDS011;18455;50.858;13.662;2022-12-07T22:17:34;9.07;;;4.70;;
31906;SDS011;18455;50.858;13.662;2022-12-07T22:22:35;8.20;;;4.90;;
31906;SDS011;18455;50.858;13.662;2022-12-07T22:27:35;10.20;;;4.67;;
31906;SDS011;18455;50.858;13.662;2022-12-07T22:32:36;10.37;;;4.90;;
31906;SDS011;18455;50.858;13.662;2022-12-07T22:37:37;10.20;;;4.43;;
31906;SDS011;18455;50.858;13.662;2022-12-07T22:42:37;8.27;;;4.50;;
31906;SDS011;18455;50.858;13.662;2022-12-07T22:47:38;9.27;;;5.07;;
31906;SDS011;18455;50.858;13.662;2022-12-07T22:52:39;9.27;;;4.80;;
31906;SDS011;18455;50.858;13.662;2022-12-07T22:57:40;8.40;;;6.13;;
31906;SDS011;18455;50.858;13.662;2022-12-07T23:02:40;11.00;;;5.90;;
31906;SDS011;18455;50.858;13.662;2022-12-07T23:07:40;10.63;;;5.60;;
31906;SDS011;18455;50.858;13.662;2022-12-07T23:12:41;10.87;;;5.37;;
31906;SDS011;18455;50.858;13.662;2022-12-07T23:18:00;11.43;;;6.23;;
31906;SDS011;18455;50.858;13.662;2022-12-07T23:23:00;11.17;;;6.00;;
31906;SDS011;18455;50.858;13.662;2022-12-07T23:28:01;9.43;;;6.33;;
31906;SDS011;18455;50.858;13.662;2022-12-07T23:33:01;11.50;;;5.70;;
31906;SDS011;18455;50.858;13.662;2022-12-07T23:38:01;10.07;;;5.53;;
31906;SDS011;18455;50.858;13.662;2022-12-07T23:43:02;11.10;;;5.87;;
31906;SDS011;18455;50.858;13.662;2022-12-07T23:48:02;14.90;;;5.53;;
31906;SDS011;18455;50.858;13.662;2022-12-07T23:53:03;12.13;;;4.83;;
31906;SDS011;18455;50.858;13.662;2022-12-07T23:58:03;11.03;;;5.00;;
